Stefan K — PBER — position and weather

sailwx.info

Track history (hours):
 
Tides and Currents Weather Stations Pressure Air Temp Water Temp Dewpoint Dewpoint Depression Visibility Wind Speed Wind Dir Waves Ship Positions

Stefan K

Last reported at 2018-Feb-23 06:00 UTC. Time now 2018-Feb-23 08:52 UTC.
Position N 35°58' W 005°37'.

Length 88 m; draft 5.5 m.

Type: Cargo ship. MMSI: 246062000.

Date/timePositionNaut miles runAvg speedWind from/ knotsBaromVisibWave heightAir tempDewpointWater temp
2018-Feb-23 06:00N 35°58' W 005°37'4 8.4
2018-Feb-23 05:30N 35°59' W 005°33'4 7.7
2018-Feb-23 05:01N 35°60' W 005°28'4 7.2
2018-Feb-23 04:31N 36°01' W 005°24'3 6.9
2018-Feb-23 04:01N 36°02' W 005°20'4 8.1
2018-Feb-23 03:30N 36°04' W 005°15'6 9.6
2018-Feb-23 02:52N 36°06' W 005°08'410.1
2018-Feb-23 02:30N 36°08' W 005°04'6 9.7
2018-Feb-23 01:52N 36°10' W 004°57'206 8.7
2018-Feb-22 02:19N 37°19' W 000°55'3 9.5
2018-Feb-22 01:58N 37°22' W 000°52'4 9.5
2018-Feb-22 01:30N 37°25' W 000°47'5 9.4
2018-Feb-22 01:01N 37°28' W 000°43'6 9.0
2018-Feb-22 00:19N 37°32' W 000°37'3 8.2
2018-Feb-22 00:01N 37°33' W 000°35'4 7.8
2018-Feb-21 23:30N 37°36' W 000°32'4 8.0
2018-Feb-21 23:00N 37°40' W 000°29'4 7.9
2018-Feb-21 22:31N 37°43' W 000°26'231 9.3
2018-Feb-20 21:41N 41°04' E 002°01'3 9.7
2018-Feb-20 21:25N 41°06' E 002°03'4 9.8
2018-Feb-20 21:00N 41°10' E 002°06'510.3
2018-Feb-20 20:30N 41°14' E 002°09'5 9.7
2018-Feb-20 20:00N 41°19' E 002°10'3 4.7
2018-Feb-20 19:26N 41°22' E 002°10'0 0.0
2018-Feb-20 18:44N 41°22' E 002°11'0 0.0
2018-Feb-20 18:26N 41°22' E 002°10'0 0.0
2018-Feb-20 17:59N 41°22' E 002°11'0 0.0
2018-Feb-20 17:26N 41°22' E 002°11'0 0.0
2018-Feb-20 16:56N 41°22' E 002°10'0 0.0
2018-Feb-20 16:29N 41°22' E 002°11'0 0.0
2018-Feb-20 15:59N 41°22' E 002°11'0 0.0
2018-Feb-20 15:29N 41°22' E 002°11'0 0.0
2018-Feb-20 14:59N 41°22' E 002°11'0 0.0
2018-Feb-20 14:02N 41°22' E 002°11'0 0.0
2018-Feb-20 13:59N 41°22' E 002°10'0 0.0
2018-Feb-20 13:26N 41°22' E 002°11'0 0.0
2018-Feb-20 12:59N 41°22' E 002°11'0 0.0
2018-Feb-20 12:29N 41°22' E 002°11'0 0.0
2018-Feb-20 11:59N 41°22' E 002°11'0 0.0
2018-Feb-20 11:26N 41°22' E 002°11'0 0.0
2018-Feb-20 10:56N 41°22' E 002°11'0 0.0
2018-Feb-20 09:56N 41°22' E 002°11'0 0.0
2018-Feb-20 09:20N 41°22' E 002°11'0 0.0
2018-Feb-20 08:59N 41°22' E 002°11'0 0.0
2018-Feb-20 08:26N 41°22' E 002°11'0 0.0
2018-Feb-20 07:56N 41°22' E 002°11'0 0.0
2018-Feb-20 06:02N 41°22' E 002°11'0 0.0
2018-Feb-20 05:56N 41°22' E 002°11'0 0.0
2018-Feb-20 05:26N 41°22' E 002°11'0 0.0
2018-Feb-20 04:59N 41°22' E 002°11'0 0.1
2018-Feb-20 04:31N 41°22' E 002°11'3 5.6
2018-Feb-20 04:00N 41°19' E 002°10'3 6.6
2018-Feb-20 03:30N 41°16' E 002°10'5 9.7
2018-Feb-20 03:01N 41°12' E 002°06'5 9.8
2018-Feb-20 02:30N 41°08' E 002°01'5 9.5
2018-Feb-20 02:00N 41°05' E 001°57'5 9.5
2018-Feb-20 01:30N 41°01' E 001°53'5 9.8
2018-Feb-20 01:00N 40°57' E 001°49'  
2018-Feb-16 13:40N 38°48' E 000°26'4710.0
2018-Feb-16 08:55N 38°06' W 000°02'2710.5
2018-Feb-16 06:24N 37°44' W 000°21'410.2
2018-Feb-16 05:59N 37°41' W 000°24'510.5
2018-Feb-16 05:30N 37°37' W 000°28'510.3
2018-Feb-16 05:00N 37°33' W 000°32'8 9.9
2018-Feb-16 04:13N 37°27' W 000°39'3 9.7
2018-Feb-16 03:58N 37°26' W 000°41'4 9.7
2018-Feb-16 03:30N 37°23' W 000°46'5 9.5
2018-Feb-16 02:58N 37°20' W 000°50'5 9.3
2018-Feb-16 02:25N 37°16' W 000°55'10 9.3
2018-Feb-16 01:24N 37°10' W 001°04'211 9.4
2018-Feb-15 02:56N 36°05' W 005°15'410.3
2018-Feb-15 02:31N 36°05' W 005°20'4 7.6
2018-Feb-15 02:00N 36°08' W 005°23'1 0.4
2018-Feb-14 23:44N 36°09' W 005°22'0 0.0
2018-Feb-14 21:19N 36°09' W 005°22'0 0.3
2018-Feb-14 21:01N 36°09' W 005°22'1 2.7
2018-Feb-14 20:30N 36°08' W 005°23'2 3.3
2018-Feb-14 20:00N 36°06' W 005°22'2 3.9
2018-Feb-14 19:31N 36°05' W 005°21'2 4.1
2018-Feb-14 19:00N 36°05' W 005°18'1 2.9
2018-Feb-14 18:31N 36°06' W 005°16'5 2.6
2018-Feb-14 16:35N 36°01' W 005°13'1 8.7
2018-Feb-14 16:31N 36°01' W 005°14'510.1
2018-Feb-14 16:00N 35°60' W 005°20'611.3
2018-Feb-14 15:31N 35°58' W 005°27'266 8.4
2018-Feb-13 08:01N 38°29' W 010°02'910.5
2018-Feb-13 07:10N 38°38' W 010°04'210.6
2018-Feb-13 07:00N 38°39' W 010°04'5 9.9
2018-Feb-13 06:30N 38°44' W 010°05'5 9.4
2018-Feb-13 06:00N 38°49' W 010°05'  
Track history (hours):
 
Tides and Currents Weather Stations Pressure Air Temp Water Temp Dewpoint Dewpoint Depression Visibility Wind Speed Wind Dir Waves Ship Positions

Stefan K

Last reported at 2018-Feb-23 06:00 UTC. Time now 2018-Feb-23 08:52 UTC.
Position N 35°58' W 005°37'.

Length 88 m; draft 5.5 m.

Type: Cargo ship. MMSI: 246062000.

Date/timePositionNaut miles runAvg speedWind from/ knotsBaromVisibWave heightAir tempDewpointWater temp
2018-Feb-23 06:00N 35°58' W 005°37'4 8.4
2018-Feb-23 05:30N 35°59' W 005°33'4 7.7
2018-Feb-23 05:01N 35°60' W 005°28'4 7.2
2018-Feb-23 04:31N 36°01' W 005°24'3 6.9
2018-Feb-23 04:01N 36°02' W 005°20'4 8.1
2018-Feb-23 03:30N 36°04' W 005°15'6 9.6
2018-Feb-23 02:52N 36°06' W 005°08'410.1
2018-Feb-23 02:30N 36°08' W 005°04'6 9.7
2018-Feb-23 01:52N 36°10' W 004°57'206 8.7
2018-Feb-22 02:19N 37°19' W 000°55'3 9.5
2018-Feb-22 01:58N 37°22' W 000°52'4 9.5
2018-Feb-22 01:30N 37°25' W 000°47'5 9.4
2018-Feb-22 01:01N 37°28' W 000°43'6 9.0
2018-Feb-22 00:19N 37°32' W 000°37'3 8.2
2018-Feb-22 00:01N 37°33' W 000°35'4 7.8
2018-Feb-21 23:30N 37°36' W 000°32'4 8.0
2018-Feb-21 23:00N 37°40' W 000°29'4 7.9
2018-Feb-21 22:31N 37°43' W 000°26'231 9.3
2018-Feb-20 21:41N 41°04' E 002°01'3 9.7
2018-Feb-20 21:25N 41°06' E 002°03'4 9.8
2018-Feb-20 21:00N 41°10' E 002°06'510.3
2018-Feb-20 20:30N 41°14' E 002°09'5 9.7
2018-Feb-20 20:00N 41°19' E 002°10'3 4.7
2018-Feb-20 19:26N 41°22' E 002°10'0 0.0
2018-Feb-20 18:44N 41°22' E 002°11'0 0.0
2018-Feb-20 18:26N 41°22' E 002°10'0 0.0
2018-Feb-20 17:59N 41°22' E 002°11'0 0.0
2018-Feb-20 17:26N 41°22' E 002°11'0 0.0
2018-Feb-20 16:56N 41°22' E 002°10'0 0.0
2018-Feb-20 16:29N 41°22' E 002°11'0 0.0
2018-Feb-20 15:59N 41°22' E 002°11'0 0.0
2018-Feb-20 15:29N 41°22' E 002°11'0 0.0
2018-Feb-20 14:59N 41°22' E 002°11'0 0.0
2018-Feb-20 14:02N 41°22' E 002°11'0 0.0
2018-Feb-20 13:59N 41°22' E 002°10'0 0.0
2018-Feb-20 13:26N 41°22' E 002°11'0 0.0
2018-Feb-20 12:59N 41°22' E 002°11'0 0.0
2018-Feb-20 12:29N 41°22' E 002°11'0 0.0
2018-Feb-20 11:59N 41°22' E 002°11'0 0.0
2018-Feb-20 11:26N 41°22' E 002°11'0 0.0
2018-Feb-20 10:56N 41°22' E 002°11'0 0.0
2018-Feb-20 09:56N 41°22' E 002°11'0 0.0
2018-Feb-20 09:20N 41°22' E 002°11'0 0.0
2018-Feb-20 08:59N 41°22' E 002°11'0 0.0
2018-Feb-20 08:26N 41°22' E 002°11'0 0.0
2018-Feb-20 07:56N 41°22' E 002°11'0 0.0
2018-Feb-20 06:02N 41°22' E 002°11'0 0.0
2018-Feb-20 05:56N 41°22' E 002°11'0 0.0
2018-Feb-20 05:26N 41°22' E 002°11'0 0.0
2018-Feb-20 04:59N 41°22' E 002°11'0 0.1
2018-Feb-20 04:31N 41°22' E 002°11'3 5.6
2018-Feb-20 04:00N 41°19' E 002°10'3 6.6
2018-Feb-20 03:30N 41°16' E 002°10'5 9.7
2018-Feb-20 03:01N 41°12' E 002°06'5 9.8
2018-Feb-20 02:30N 41°08' E 002°01'5 9.5
2018-Feb-20 02:00N 41°05' E 001°57'5 9.5
2018-Feb-20 01:30N 41°01' E 001°53'5 9.8
2018-Feb-20 01:00N 40°57' E 001°49'  
2018-Feb-16 13:40N 38°48' E 000°26'4710.0
2018-Feb-16 08:55N 38°06' W 000°02'2710.5
2018-Feb-16 06:24N 37°44' W 000°21'410.2
2018-Feb-16 05:59N 37°41' W 000°24'510.5
2018-Feb-16 05:30N 37°37' W 000°28'510.3
2018-Feb-16 05:00N 37°33' W 000°32'8 9.9
2018-Feb-16 04:13N 37°27' W 000°39'3 9.7
2018-Feb-16 03:58N 37°26' W 000°41'4 9.7
2018-Feb-16 03:30N 37°23' W 000°46'5 9.5
2018-Feb-16 02:58N 37°20' W 000°50'5 9.3
2018-Feb-16 02:25N 37°16' W 000°55'10 9.3
2018-Feb-16 01:24N 37°10' W 001°04'211 9.4
2018-Feb-15 02:56N 36°05' W 005°15'410.3
2018-Feb-15 02:31N 36°05' W 005°20'4 7.6
2018-Feb-15 02:00N 36°08' W 005°23'1 0.4
2018-Feb-14 23:44N 36°09' W 005°22'0 0.0
2018-Feb-14 21:19N 36°09' W 005°22'0 0.3
2018-Feb-14 21:01N 36°09' W 005°22'1 2.7
2018-Feb-14 20:30N 36°08' W 005°23'2 3.3
2018-Feb-14 20:00N 36°06' W 005°22'2 3.9
2018-Feb-14 19:31N 36°05' W 005°21'2 4.1
2018-Feb-14 19:00N 36°05' W 005°18'1 2.9
2018-Feb-14 18:31N 36°06' W 005°16'5 2.6
2018-Feb-14 16:35N 36°01' W 005°13'1 8.7
2018-Feb-14 16:31N 36°01' W 005°14'510.1
2018-Feb-14 16:00N 35°60' W 005°20'611.3
2018-Feb-14 15:31N 35°58' W 005°27'266 8.4
2018-Feb-13 08:01N 38°29' W 010°02'910.5
2018-Feb-13 07:10N 38°38' W 010°04'210.6
2018-Feb-13 07:00N 38°39' W 010°04'5 9.9
2018-Feb-13 06:30N 38°44' W 010°05'5 9.4
2018-Feb-13 06:00N 38°49' W 010°05'  

Dump ship's entire track history